Stations météo

Publicité
Dunstaffnage, Grande-Bretagne (99006): Température de l'air & dewpoint: 15.10.2019 06:00:00 - 21.10.2019 06:00:00 (BST)Dunstaffnage, Grande-Bretagne (99006): Température de l'air -20cm: 15.10.2019 06:00:00 - 21.10.2019 06:00:00 (BST)Dunstaffnage, Grande-Bretagne (99006): Vitesse du vent: 15.10.2019 06:00:00 - 21.10.2019 06:00:00 (BST)Dunstaffnage, Grande-Bretagne (99006): Direction du vent: 15.10.2019 06:00:00 - 21.10.2019 06:00:00 (BST)Dunstaffnage, Grande-Bretagne (99006): Quantités de précipitations: 15.10.2019 06:00:00 - 21.10.2019 06:00:00 (BST)
Date & Time tt [°C] td [°C] tt -20cm [°C] ff [km/h] ff [knt] dd rr [mm]
21.10.2019 06:00:00 2,2 1,3 - 9 5 E 0,0
21.10.2019 05:00:00 2,6 1,7 - 11 6 E 0,0
21.10.2019 04:00:00 2,7 1,9 - 9 5 E 0,0
21.10.2019 03:00:00 1,2 0,7 - 2 1 E 0,0
21.10.2019 02:00:00 1,1 0,6 - 2 1 SW 0,0
21.10.2019 01:00:00 1,5 0,8 - 2 1 NNE 0,0
21.10.2019 00:00:00 2,2 1,5 - 2 1 NNE 0,0
20.10.2019 23:00:00 1,4 0,5 - 4 2 S 0,0
20.10.2019 22:00:00 2,2 0,8 - 4 2 SSW 0,0
20.10.2019 21:00:00 3,7 1,3 - 4 2 S 0,0
20.10.2019 20:00:00 6,7 2,1 - 8 4 E 0,0
20.10.2019 19:00:00 8,6 1,9 - 13 7 NNE 0,0
20.10.2019 18:00:00 9,4 2,9 - 16 9 NNE 0,0
20.10.2019 17:00:00 10,1 2,6 - 18 10 NNE 0,0
20.10.2019 16:00:00 10,6 3,3 - 16 9 NNE 0,0
20.10.2019 15:00:00 10,7 2,3 - 28 15 NNE 0,0
20.10.2019 14:00:00 10,5 2,4 - 28 15 NNE 0,0
20.10.2019 13:00:00 10,5 3,7 - 22 12 NNE 0,0
20.10.2019 12:00:00 10,1 3,3 - 16 9 N 0,0
20.10.2019 11:00:00 9,7 3,9 - 13 7 N 0,0
20.10.2019 10:00:00 8,9 4,0 10,2 9 5 NNE 0,0
20.10.2019 09:00:00 7,9 3,4 - 11 6 NNE 0,0
20.10.2019 08:00:00 7,3 2,4 - 8 4 NNW 0,0
20.10.2019 07:00:00 7,5 3,3 - 5 3 NE 0,0
20.10.2019 06:00:00 7,2 3,2 - 8 4 NNE 0,0
20.10.2019 05:00:00 8,0 3,8 - 13 7 NNE 0,0
20.10.2019 04:00:00 8,3 3,9 - 18 10 NNE 0,0
20.10.2019 03:00:00 8,8 3,8 - 21 11 NNE 0,0
20.10.2019 02:00:00 9,1 4,1 - 22 12 NNE 0,0
20.10.2019 01:00:00 9,5 4,1 - 16 9 NNE 0,0
20.10.2019 00:00:00 9,6 4,3 - 22 12 NNE 0,0
19.10.2019 23:00:00 9,9 6,2 - 16 9 NNE 0,0
19.10.2019 22:00:00 9,8 6,6 - 13 7 NNE 0,0
19.10.2019 21:00:00 9,9 6,2 - 9 5 N 0,0
19.10.2019 20:00:00 10,2 6,4 - 8 4 N 0,0
19.10.2019 19:00:00 10,4 6,5 - 16 9 NNE 0,0
19.10.2019 18:00:00 10,7 6,8 - 13 7 NNE 0,0
19.10.2019 17:00:00 11,3 6,9 - 15 8 NE 0,0
19.10.2019 16:00:00 12,3 5,7 - 11 6 NNE 0,0
19.10.2019 15:00:00 12,5 6,0 - 11 6 NNE 0,0
19.10.2019 14:00:00 12,3 6,5 - 16 9 NNE 0,0
19.10.2019 13:00:00 12,1 6,3 - 11 6 N 0,0
19.10.2019 12:00:00 10,5 6,2 - 16 9 NNE 0,0
19.10.2019 11:00:00 10,0 5,7 - 18 10 NNE 0,0
19.10.2019 10:00:00 10,0 6,0 10,7 24 13 NNE 0,0
19.10.2019 09:00:00 10,0 5,8 - 16 9 N 0,0
19.10.2019 08:00:00 10,6 6,8 - 22 12 NNE 0,0
19.10.2019 07:00:00 10,6 7,1 - 21 11 NNE 0,0
19.10.2019 06:00:00 10,5 8,3 - 16 9 NNE 0,0
19.10.2019 05:00:00 10,4 8,2 - 16 9 NNE 0,0
19.10.2019 04:00:00 10,2 7,8 - 13 7 N 0,0
19.10.2019 03:00:00 8,8 7,7 - 8 4 E 0,0
19.10.2019 02:00:00 8,8 7,3 - 4 2 S 0,2
19.10.2019 01:00:00 9,2 7,4 - 4 2 SSE 0,0
19.10.2019 00:00:00 9,5 7,6 - 5 3 NE 0,0
18.10.2019 23:00:00 9,6 7,3 - 5 3 NNW 0,0
18.10.2019 22:00:00 9,5 8,2 - 9 5 NNE 0,8
18.10.2019 21:00:00 10,1 8,0 - 9 5 NNE 0,2
18.10.2019 20:00:00 11,2 7,0 - 8 4 N 0,0
18.10.2019 19:00:00 11,4 7,1 - 11 6 NNE 0,0
18.10.2019 18:00:00 11,7 6,6 - 11 6 NNE 0,0
18.10.2019 17:00:00 12,7 6,5 - 11 6 NNE 0,0
18.10.2019 16:00:00 12,9 7,5 - 8 4 NNE 0,0
18.10.2019 15:00:00 13,1 7,8 - 2 1 E 0,0
18.10.2019 14:00:00 12,6 8,0 - 0 0 N 0,0
18.10.2019 13:00:00 11,9 7,8 - 5 3 NNE 0,0
18.10.2019 12:00:00 10,8 7,3 - 5 3 NE 0,0
18.10.2019 11:00:00 10,1 7,4 - 8 4 ENE 0,0
18.10.2019 10:00:00 9,1 6,9 10,4 11 6 E 0,0
18.10.2019 09:00:00 8,7 6,6 - 8 4 SE 0,0
18.10.2019 08:00:00 8,3 6,6 - 11 6 E 0,0
18.10.2019 07:00:00 8,3 6,0 - 9 5 ESE 0,0
18.10.2019 06:00:00 8,7 6,3 - 9 5 SSE 0,0
18.10.2019 05:00:00 8,7 6,6 - 8 4 E 0,0
18.10.2019 04:00:00 8,7 6,2 - 13 7 E 0,0
18.10.2019 03:00:00 8,7 6,0 - 11 6 ESE 0,0
18.10.2019 02:00:00 8,7 6,7 - 11 6 ENE 0,2
18.10.2019 01:00:00 9,0 6,5 - 13 7 E 0,0
18.10.2019 00:00:00 10,4 7,5 - 9 5 ENE 0,0
17.10.2019 23:00:00 10,7 7,8 - 13 7 E 0,0
17.10.2019 22:00:00 10,7 7,8 - 16 9 E 0,0
17.10.2019 21:00:00 10,4 7,5 - 18 10 E 0,0
17.10.2019 20:00:00 10,3 7,2 - 18 10 E 0,0
17.10.2019 19:00:00 10,6 7,7 - 16 9 E 0,0
17.10.2019 18:00:00 10,3 7,4 - 13 7 E 0,0
17.10.2019 17:00:00 10,9 8,0 - 16 9 E 0,0
17.10.2019 16:00:00 12,0 7,9 - 18 10 E 0,0
17.10.2019 15:00:00 13,6 9,1 - 18 10 ESE 0,0
17.10.2019 14:00:00 12,1 8,7 - 18 10 E 0,0
17.10.2019 13:00:00 12,0 7,9 - 22 12 E 0,0
17.10.2019 12:00:00 12,6 8,3 - 21 11 E 0,0
17.10.2019 11:00:00 10,8 7,4 - 21 11 E 0,0
17.10.2019 10:00:00 10,2 7,4 10,2 18 10 E 0,0
17.10.2019 09:00:00 9,0 6,6 - 16 9 E 0,0
17.10.2019 08:00:00 8,3 6,4 - 15 8 ESE 0,0
17.10.2019 07:00:00 7,9 5,9 - 9 5 ESE 0,0
17.10.2019 06:00:00 8,1 5,9 - 8 4 SE 0,2
17.10.2019 05:00:00 8,4 6,3 - 11 6 ESE 0,0
17.10.2019 04:00:00 8,0 5,9 - 13 7 ESE 0,0
17.10.2019 03:00:00 8,0 6,1 - 18 10 E 0,0
17.10.2019 02:00:00 6,9 5,8 - 13 7 ESE 0,0
17.10.2019 01:00:00 6,9 5,7 - 11 6 ESE 0,0
17.10.2019 00:00:00 7,8 6,5 - 15 8 ESE 0,0
16.10.2019 23:00:00 8,0 6,6 - 15 8 ESE 0,0
16.10.2019 22:00:00 8,4 7,1 - 16 9 ESE 0,0
16.10.2019 21:00:00 8,8 7,3 - 15 8 SE 0,0
16.10.2019 20:00:00 9,2 7,5 - 11 6 SSE 0,0
16.10.2019 19:00:00 9,8 7,7 - 4 2 S 0,0
16.10.2019 18:00:00 10,9 7,0 - 5 3 SSW 0,2
16.10.2019 17:00:00 12,1 7,0 - 11 6 WSW 0,0
16.10.2019 16:00:00 12,5 8,7 - 15 8 SW 0,0
16.10.2019 15:00:00 12,3 8,3 - 2 1 WNW 0,2
16.10.2019 14:00:00 12,5 10,3 - 13 7 WSW 0,0
16.10.2019 13:00:00 12,1 11,1 - 5 3 E 0,0
16.10.2019 12:00:00 10,9 10,2 - 5 3 ESE 0,0
16.10.2019 11:00:00 10,4 9,8 - 8 4 ESE 0,0
16.10.2019 10:00:00 9,7 9,0 10,9 4 2 S 0,2
16.10.2019 09:00:00 9,8 9,1 - 11 6 WSW 1,4
16.10.2019 08:00:00 10,3 9,6 - 8 4 SSW 4,2
16.10.2019 07:00:00 10,8 9,9 - 16 9 SSW 1,8
16.10.2019 06:00:00 11,4 9,8 - 22 12 E 0,0
16.10.2019 05:00:00 10,6 9,7 - 21 11 E 0,4
16.10.2019 04:00:00 10,7 9,2 - 22 12 E 0,4
16.10.2019 03:00:00 11,9 8,5 - 24 13 E 0,0
16.10.2019 02:00:00 11,7 8,4 - 21 11 E 0,0
16.10.2019 01:00:00 11,7 8,3 - 21 11 E 0,0
16.10.2019 00:00:00 11,5 8,1 - 21 11 E 0,0
15.10.2019 23:00:00 11,5 8,0 - 18 10 E 0,0
15.10.2019 22:00:00 11,6 8,0 - 18 10 E 0,0
15.10.2019 21:00:00 11,5 7,9 - 15 8 E 0,0
15.10.2019 20:00:00 11,4 7,6 - 15 8 E 0,0
15.10.2019 19:00:00 11,6 7,8 - 4 2 SE 0,0
15.10.2019 18:00:00 11,6 7,7 - 5 3 E 0,0
15.10.2019 17:00:00 11,8 7,3 - 2 1 SSE 0,0
15.10.2019 16:00:00 13,5 6,5 - 16 9 ESE 0,0
15.10.2019 15:00:00 15,0 8,1 - 13 7 ESE 0,0
15.10.2019 14:00:00 14,5 8,0 - 18 10 ESE 0,0
15.10.2019 13:00:00 14,9 8,5 - 9 5 ESE 0,0
15.10.2019 12:00:00 13,7 8,0 - 21 11 E 0,0
15.10.2019 11:00:00 12,7 7,2 - 22 12 E 0,0
15.10.2019 10:00:00 11,7 7,4 10,7 18 10 E 0,0
15.10.2019 09:00:00 10,5 7,4 - 9 5 E 0,0
15.10.2019 08:00:00 9,4 6,7 - 9 5 SE 0,0
15.10.2019 07:00:00 9,4 7,1 - 21 11 E 0,0
15.10.2019 06:00:00 8,7 6,3 - 13 7 E 0,0

tt = Température de l'air
td = dewpoint
tt -20cm = Température de l'air -20cm
ff = Vitesse du vent
dd = Direction du vent
rr = Quantités de précipitations

stations d'obs. à proximité